Flight Track Log - Related Links

Times and Time Zones

All times are in EDT time to prevent confusion due to time zone crossing. See the ASQ5096 flight status page for this flight to view local times or setup timezone preferences in your user account.

Time Position Orientation Groundspeed Altitude Reporting Facility
EDT Latitude Longitude Course Direction KTS MPH feet Rate Location/Type
Sun 05:41:22 PM 33.4194 -82.0700 259° West 212 244 5,400  Level Atlanta Center
Sun 05:42:22 PM 33.4061 -82.1428 258° West 217 250 8,500 2,350 Climbing Atlanta Center
Sun 05:43:22 PM 33.3925 -82.2225 258° West 236 272 10,100 1,450 Climbing Atlanta Center
Sun 05:44:22 PM 33.3733 -82.3275 258° West 299 344 11,400 1,550 Climbing Atlanta Center
Sun 05:45:00 PM 33.3144 -82.4637 259° West  Level FlightAware Approximate
Sun 05:45:22 PM 33.3600 -82.4347 262° West 331 381 13,200  Level Atlanta Center
Sun 05:46:00 PM 33.3003 -82.5485 259° West  Level FlightAware Approximate
Sun 05:46:22 PM 33.3408 -82.5642 260° West 350 403 15,200  Level Atlanta Center
Sun 05:47:22 PM 33.3339 -82.6789 266° West 350 403 17,200 1,950 Climbing Atlanta Center
Sun 05:48:22 PM 33.3181 -82.7833 260° West 355 409 19,100 1,400 Climbing Atlanta Center
Sun 05:49:22 PM 33.3089 -82.8978 265° West 355 409 20,000 450 Climbing Atlanta Center
Sun 05:50:22 PM 33.3017 -83.0272 266° West 355 409 20,000  Level Atlanta Center
Sun 05:51:22 PM 33.2881 -83.1417 262° West 355 409 20,000  Level Atlanta Center
Sun 05:52:22 PM 33.2742 -83.2536 262° West 350 403 20,000 -50 Level Atlanta Center
Sun 05:53:22 PM 33.2622 -83.3706 263° West 350 403 19,900 -850 Descending Atlanta Center
Sun 05:54:22 PM 33.2483 -83.4875 262° West 350 403 18,300 -1,850 Descending Atlanta Center
Sun 05:55:22 PM 33.2403 -83.5942 265° West 361 415 16,200 -2,450 Descending Atlanta Center
Sun 05:56:22 PM 33.2261 -83.7036 261° West 354 407 13,400 -2,100 Descending Atlanta Center
Sun 05:57:22 PM 33.2222 -83.8053 267° West 331 381 12,000 -1,600 Descending Atlanta Center
Sun 05:58:22 PM 33.2619 -83.8772 303° West 262 302 10,200 -1,750 Descending Atlanta Center
Sun 05:59:22 PM 33.3058 -83.9444 308° West 262 302 8,500 -1,100 Descending Atlanta Center
Sun 06:00:22 PM 33.3497 -84.0139 307° West 257 296 8,000 -1,000 Descending Atlanta Center
Sun 06:01:22 PM 33.4122 -84.0611 328° Northwest 245 282 6,500 -1,500 Descending Atlanta Center
Sun 06:02:22 PM 33.4750 -84.1061 329° Northwest 252 290 5,000 -1,250 Descending Atlanta Center
Sun 06:03:22 PM 33.5333 -84.1486 329° Northwest 257 296 4,000 -750 Descending Atlanta Center
Sun 06:03:42 PM 33.5500 -84.1667 318° Northwest 245 282 4,000  Level Atlanta TRACON
Sun 06:04:42 PM 33.6000 -84.2167 320° Northwest 245 282 4,000 -400 Level Atlanta TRACON
Sun 06:05:42 PM 33.6167 -84.2833 287° West 228 262 3,200 -800 Descending Atlanta TRACON
Sun 06:06:42 PM 33.6167 -84.3500 270° West 185 213 2,400 -947 Descending Atlanta TRACON
Sun 06:07:36 PM 33.6167 -84.4000 270° West 133 153 1,400 -1,111 Descending Atlanta TRACON
Sun 06:09:00 PM 33.6367 -84.4279 270° West  Level Estimated
Sun 06:16:00 PM 33.6367 -84.4279 64° Northeast  Level Estimated
Sun 06:17:00 PM 33.6367 -84.4279 64° Northeast  Level Estimated

Login

Don't have an account? Register now (free) for customized features, flight alerts, and more!